Time;durP1;ratioP1;P1;durP2;ratioP2;P2;SDS_P1;SDS_P2;PMS_P1;PMS_P2;Temp;Humidity;BMP_temperature;BMP_pressure;BME280_temperature;BME280_humidity;BME280_pressure;Samples;Min_cycle;Max_cycle;Signal;HPM_P1;HPM_P2
2022/03/10 00:01:22;;;;;;;18.93;12.80;;;;;;;;;;5034591;28;20234;-74
2022/03/10 00:03:51;;;;;;;19.10;13.03;;;;;;;;;;5034098;28;20208;-74
2022/03/10 00:06:19;;;;;;;19.27;14.13;;;;;;;;;;5038549;28;20246;-74
2022/03/10 00:08:47;;;;;;;21.33;13.30;;;;;;;;;;5033094;28;20240;-74
2022/03/10 00:11:15;;;;;;;17.73;12.80;;;;;;;;;;5034664;28;20211;-74
2022/03/10 00:13:43;;;;;;;18.77;13.57;;;;;;;;;;5038651;28;20262;-74
2022/03/10 00:16:11;;;;;;;22.63;13.43;;;;;;;;;;5030906;28;20654;-75
2022/03/10 00:18:40;;;;;;;19.07;13.20;;;;;;;;;;5039106;28;20306;-74
2022/03/10 00:21:08;;;;;;;20.23;14.73;;;;;;;;;;5028846;28;20235;-75
2022/03/10 00:23:36;;;;;;;19.13;12.37;;;;;;;;;;5038008;28;20239;-74
2022/03/10 00:26:04;;;;;;;22.00;14.47;;;;;;;;;;5035605;28;20219;-73
2022/03/10 00:28:32;;;;;;;22.33;14.13;;;;;;;;;;5038401;28;20610;-75
2022/03/10 00:31:00;;;;;;;19.87;14.27;;;;;;;;;;5038630;28;20678;-74
2022/03/10 00:33:28;;;;;;;18.53;13.80;;;;;;;;;;5037915;28;20238;-75
2022/03/10 00:35:58;;;;;;;19.63;12.70;;;;;;;;;;5031110;28;20383;-75
2022/03/10 00:38:26;;;;;;;24.27;14.37;;;;;;;;;;5038429;28;20638;-74
2022/03/10 00:40:54;;;;;;;24.47;13.97;;;;;;;;;;5035271;28;20204;-74
2022/03/10 00:43:22;;;;;;;19.73;12.93;;;;;;;;;;5038677;28;20291;-74
2022/03/10 00:45:50;;;;;;;19.73;13.10;;;;;;;;;;5035236;28;20267;-74
2022/03/10 00:48:18;;;;;;;23.57;13.53;;;;;;;;;;5038961;28;20230;-74
2022/03/10 00:50:46;;;;;;;18.37;12.83;;;;;;;;;;5038596;28;20286;-74
2022/03/10 00:53:16;;;;;;;18.07;11.97;;;;;;;;;;5033686;28;20612;-74
2022/03/10 00:55:44;;;;;;;21.33;13.00;;;;;;;;;;5035091;28;20286;-74
2022/03/10 00:58:11;;;;;;;22.20;13.70;;;;;;;;;;5034031;28;20267;-74
2022/03/10 01:00:39;;;;;;;20.30;12.40;;;;;;;;;;5038250;28;20199;-74
2022/03/10 01:03:10;;;;;;;24.77;14.40;;;;;;;;;;5037928;28;20629;-75
2022/03/10 01:05:38;;;;;;;22.80;13.73;;;;;;;;;;5037917;28;20599;-74
2022/03/10 01:08:06;;;;;;;19.27;13.80;;;;;;;;;;5034544;28;20262;-75
2022/03/10 01:10:36;;;;;;;22.13;13.60;;;;;;;;;;5038604;28;20283;-73
2022/03/10 01:13:04;;;;;;;25.70;13.63;;;;;;;;;;5038818;28;20294;-74
2022/03/10 01:15:32;;;;;;;21.83;14.83;;;;;;;;;;5030394;28;20310;-75
2022/03/10 01:18:00;;;;;;;22.33;14.10;;;;;;;;;;5041365;28;20214;-75
2022/03/10 01:20:28;;;;;;;22.80;14.10;;;;;;;;;;5039489;28;20200;-75
2022/03/10 01:22:56;;;;;;;22.63;15.33;;;;;;;;;;5036669;28;20710;-74
2022/03/10 01:25:24;;;;;;;21.27;14.43;;;;;;;;;;5039723;28;20251;-74
2022/03/10 01:27:54;;;;;;;26.47;15.07;;;;;;;;;;5042579;28;20231;-74
2022/03/10 01:30:22;;;;;;;21.73;15.63;;;;;;;;;;5037298;28;20247;-74
2022/03/10 01:32:50;;;;;;;22.37;15.87;;;;;;;;;;5036988;28;20227;-72
2022/03/10 01:35:18;;;;;;;22.80;15.10;;;;;;;;;;5036342;28;20697;-74
2022/03/10 01:37:46;;;;;;;24.73;14.80;;;;;;;;;;5037923;28;20203;-74
2022/03/10 01:40:15;;;;;;;23.40;13.37;;;;;;;;;;5040488;28;20785;-74
2022/03/10 01:42:43;;;;;;;20.03;12.97;;;;;;;;;;5036620;28;20211;-74
2022/03/10 01:45:13;;;;;;;22.57;13.97;;;;;;;;;;5038874;28;20232;-74
2022/03/10 01:47:41;;;;;;;21.90;14.77;;;;;;;;;;5038622;28;20668;-74
2022/03/10 01:50:10;;;;;;;21.53;14.63;;;;;;;;;;5029785;28;20274;-74
2022/03/10 01:52:38;;;;;;;24.43;14.60;;;;;;;;;;5038800;28;20246;-74
2022/03/10 01:55:07;;;;;;;20.97;13.83;;;;;;;;;;5038880;28;20672;-74
2022/03/10 01:57:35;;;;;;;22.17;14.13;;;;;;;;;;5038092;28;20287;-74
2022/03/10 02:00:04;;;;;;;22.53;14.40;;;;;;;;;;5038286;28;20259;-74
2022/03/10 02:02:33;;;;;;;25.73;15.13;;;;;;;;;;5040284;28;20683;-74
2022/03/10 02:05:01;;;;;;;20.37;13.13;;;;;;;;;;5038517;28;20231;-74
2022/03/10 02:10:18;;;;;;;22.33;14.83;;;;;;;;;;5039509;28;20671;-74
2022/03/10 02:12:47;;;;;;;24.03;14.67;;;;;;;;;;5036436;28;20236;-74
2022/03/10 02:18:03;;;;;;;22.57;14.37;;;;;;;;;;5036595;28;20211;-74
2022/03/10 02:20:31;;;;;;;24.00;16.37;;;;;;;;;;5029514;28;20654;-74
2022/03/10 02:23:01;;;;;;;21.63;15.13;;;;;;;;;;5033648;28;20286;-74
2022/03/10 02:25:29;;;;;;;29.27;17.37;;;;;;;;;;5028444;28;20707;-74
2022/03/10 02:27:58;;;;;;;29.47;17.67;;;;;;;;;;5036699;28;20247;-74
2022/03/10 02:30:30;;;;;;;32.10;18.50;;;;;;;;;;5035646;28;20192;-74
2022/03/10 02:32:58;;;;;;;32.37;17.90;;;;;;;;;;5035246;28;20229;-74
2022/03/10 02:35:26;;;;;;;31.20;16.60;;;;;;;;;;5031592;28;20250;-74
2022/03/10 02:37:54;;;;;;;30.70;18.30;;;;;;;;;;5034099;28;20291;-73
2022/03/10 02:40:24;;;;;;;26.30;16.77;;;;;;;;;;5035222;28;20255;-72
2022/03/10 02:42:52;;;;;;;27.50;17.43;;;;;;;;;;5034394;28;20227;-73
2022/03/10 02:45:22;;;;;;;29.40;16.90;;;;;;;;;;5036072;28;20588;-73
2022/03/10 02:47:50;;;;;;;27.90;16.60;;;;;;;;;;5034778;28;20226;-74
2022/03/10 02:50:18;;;;;;;26.53;17.33;;;;;;;;;;5033062;28;20227;-74
2022/03/10 02:52:46;;;;;;;25.40;16.83;;;;;;;;;;5034179;28;20310;-74
2022/03/10 02:55:15;;;;;;;27.97;15.20;;;;;;;;;;5031976;28;20223;-74
2022/03/10 02:57:44;;;;;;;30.30;16.20;;;;;;;;;;5038219;28;20294;-74
2022/03/10 03:00:14;;;;;;;26.23;16.50;;;;;;;;;;5038285;28;20279;-74
2022/03/10 03:02:42;;;;;;;25.83;15.57;;;;;;;;;;5039108;28;20204;-74
2022/03/10 03:05:12;;;;;;;22.13;15.20;;;;;;;;;;5038301;28;20199;-74
2022/03/10 03:07:43;;;;;;;24.10;15.43;;;;;;;;;;5038988;28;20196;-73
2022/03/10 03:10:11;;;;;;;25.90;15.37;;;;;;;;;;5037007;28;20230;-74
2022/03/10 03:12:45;;;;;;;24.03;16.10;;;;;;;;;;5039497;28;20298;-73
2022/03/10 03:15:13;;;;;;;26.00;15.83;;;;;;;;;;5031745;28;20229;-73
2022/03/10 03:17:41;;;;;;;26.77;15.57;;;;;;;;;;5038664;28;20227;-73
2022/03/10 03:20:14;;;;;;;23.17;15.53;;;;;;;;;;5036258;28;20224;-73
2022/03/10 03:22:43;;;;;;;24.97;16.07;;;;;;;;;;5035406;28;20287;-73
2022/03/10 03:25:12;;;;;;;23.87;15.17;;;;;;;;;;5036122;28;20211;-73
2022/03/10 03:27:46;;;;;;;24.17;16.13;;;;;;;;;;5034304;28;20219;-73
2022/03/10 03:30:15;;;;;;;23.13;15.73;;;;;;;;;;5038642;28;20200;-74
2022/03/10 03:32:43;;;;;;;24.00;15.17;;;;;;;;;;5038416;28;20253;-74
2022/03/10 03:35:11;;;;;;;28.73;16.30;;;;;;;;;;5036368;28;20242;-73
2022/03/10 03:37:39;;;;;;;23.27;15.37;;;;;;;;;;5038713;28;20258;-74
2022/03/10 03:40:08;;;;;;;22.07;14.17;;;;;;;;;;5038698;28;20257;-74
2022/03/10 03:42:36;;;;;;;21.00;13.80;;;;;;;;;;5036938;28;20286;-74
2022/03/10 03:45:06;;;;;;;22.23;15.33;;;;;;;;;;5035236;28;20654;-74
2022/03/10 03:47:34;;;;;;;24.13;15.40;;;;;;;;;;5039501;28;20286;-74
2022/03/10 03:50:02;;;;;;;21.30;15.20;;;;;;;;;;5039173;28;20211;-74
2022/03/10 03:52:30;;;;;;;22.50;14.17;;;;;;;;;;5039626;28;20287;-74
2022/03/10 03:54:58;;;;;;;22.93;15.47;;;;;;;;;;5035810;28;20262;-74
2022/03/10 03:57:26;;;;;;;26.23;15.33;;;;;;;;;;5039183;28;20390;-75
2022/03/10 03:59:54;;;;;;;20.30;13.87;;;;;;;;;;5036577;28;20306;-74
2022/03/10 04:02:24;;;;;;;22.13;14.57;;;;;;;;;;5036375;28;20283;-74
2022/03/10 04:04:52;;;;;;;23.00;15.10;;;;;;;;;;5036576;28;20227;-74
2022/03/10 04:07:20;;;;;;;22.03;14.67;;;;;;;;;;5038852;28;20743;-74
2022/03/10 04:09:48;;;;;;;23.77;14.70;;;;;;;;;;5039261;28;20267;-74
2022/03/10 04:12:16;;;;;;;24.57;14.33;;;;;;;;;;5035309;28;20235;-74
2022/03/10 04:14:44;;;;;;;25.43;15.40;;;;;;;;;;5019099;28;20619;-74
2022/03/10 04:17:12;;;;;;;27.30;16.03;;;;;;;;;;5018493;28;20779;-74
2022/03/10 04:19:42;;;;;;;26.13;15.43;;;;;;;;;;5019371;28;20212;-73
2022/03/10 04:22:10;;;;;;;27.20;15.97;;;;;;;;;;5019034;28;20287;-74
2022/03/10 04:24:38;;;;;;;24.13;15.13;;;;;;;;;;5018812;28;20243;-74
2022/03/10 04:27:06;;;;;;;25.33;13.87;;;;;;;;;;5018837;28;20256;-74
2022/03/10 04:29:34;;;;;;;23.90;14.20;;;;;;;;;;5014511;28;21022;-73
2022/03/10 04:32:02;;;;;;;21.87;13.97;;;;;;;;;;5018734;28;20208;-74
2022/03/10 04:34:30;;;;;;;24.23;15.13;;;;;;;;;;5018554;28;20475;-74
2022/03/10 04:36:59;;;;;;;22.77;14.97;;;;;;;;;;5018683;28;20788;-74
2022/03/10 04:39:27;;;;;;;25.17;16.03;;;;;;;;;;5008155;28;20223;-73
2022/03/10 04:41:55;;;;;;;26.93;15.50;;;;;;;;;;5013255;28;20574;-74
2022/03/10 04:44:24;;;;;;;21.47;15.00;;;;;;;;;;5018262;28;20683;-74
2022/03/10 04:46:52;;;;;;;26.77;15.53;;;;;;;;;;5017928;28;20566;-73
2022/03/10 04:49:20;;;;;;;28.20;15.97;;;;;;;;;;5015945;28;20730;-74
2022/03/10 04:51:48;;;;;;;26.73;16.57;;;;;;;;;;5015268;28;20486;-74
2022/03/10 04:54:18;;;;;;;28.50;16.10;;;;;;;;;;5011653;28;20554;-73
2022/03/10 04:56:47;;;;;;;27.80;15.93;;;;;;;;;;5010356;28;20895;-73
2022/03/10 04:59:15;;;;;;;25.30;17.17;;;;;;;;;;5018754;28;20475;-74
2022/03/10 05:01:43;;;;;;;24.37;15.63;;;;;;;;;;5015680;28;20519;-74
2022/03/10 05:04:11;;;;;;;27.77;16.40;;;;;;;;;;5007268;28;20451;-74
2022/03/10 05:06:39;;;;;;;25.33;15.20;;;;;;;;;;5014206;28;20503;-74
2022/03/10 05:09:07;;;;;;;23.40;15.73;;;;;;;;;;5015078;28;20474;-74
2022/03/10 05:11:37;;;;;;;24.50;16.40;;;;;;;;;;5017732;28;20525;-73
2022/03/10 05:14:05;;;;;;;28.67;16.37;;;;;;;;;;5033040;28;20516;-73
2022/03/10 05:16:34;;;;;;;29.57;17.93;;;;;;;;;;5037412;28;20564;-74
2022/03/10 05:19:02;;;;;;;31.53;16.17;;;;;;;;;;5034309;28;20529;-73
2022/03/10 05:21:30;;;;;;;32.07;18.03;;;;;;;;;;5034450;28;20510;-74
2022/03/10 05:23:58;;;;;;;29.77;16.40;;;;;;;;;;5032544;28;20884;-74
2022/03/10 05:26:26;;;;;;;26.70;17.37;;;;;;;;;;5033757;28;20497;-74
2022/03/10 05:28:55;;;;;;;27.00;17.50;;;;;;;;;;5037349;28;20561;-74
2022/03/10 05:31:23;;;;;;;691.90;469.37;;;;;;;;;;5034847;28;20505;-74
2022/03/10 05:33:51;;;;;;;78.30;44.53;;;;;;;;;;5035205;28;20454;-74
2022/03/10 05:36:19;;;;;;;28.60;17.90;;;;;;;;;;5029590;28;20306;-74
2022/03/10 05:38:47;;;;;;;35.87;17.30;;;;;;;;;;5033703;28;20230;-65
2022/03/10 05:41:20;;;;;;;28.17;18.03;;;;;;;;;;5032300;28;20669;-64
2022/03/10 05:43:48;;;;;;;24.03;17.17;;;;;;;;;;5032801;28;20238;-64
2022/03/10 05:46:18;;;;;;;28.90;16.87;;;;;;;;;;5034609;28;20259;-64
2022/03/10 05:48:51;;;;;;;25.17;16.27;;;;;;;;;;5033040;28;20238;-63
2022/03/10 05:51:19;;;;;;;33.87;17.13;;;;;;;;;;5032548;28;20623;-64
2022/03/10 05:53:48;;;;;;;27.47;16.37;;;;;;;;;;5029547;28;20291;-64
2022/03/10 05:56:16;;;;;;;23.13;16.20;;;;;;;;;;5031181;28;20298;-64
2022/03/10 05:58:46;;;;;;;26.63;15.37;;;;;;;;;;5029610;28;20204;-64
2022/03/10 06:01:14;;;;;;;22.87;14.57;;;;;;;;;;5032574;28;20223;-63
2022/03/10 06:03:44;;;;;;;27.97;17.27;;;;;;;;;;5030460;28;20215;-74
2022/03/10 06:06:13;;;;;;;25.07;15.50;;;;;;;;;;5029260;28;20258;-73
2022/03/10 06:08:42;;;;;;;26.47;16.57;;;;;;;;;;5028334;28;20208;-74
2022/03/10 06:11:10;;;;;;;34.10;17.27;;;;;;;;;;5030850;28;20219;-71
2022/03/10 06:13:38;;;;;;;34.50;18.13;;;;;;;;;;5028849;28;20247;-75
2022/03/10 06:16:06;;;;;;;32.07;16.90;;;;;;;;;;5032286;28;20258;-75
2022/03/10 06:18:34;;;;;;;31.60;18.10;;;;;;;;;;5032269;28;20571;-75
2022/03/10 06:21:04;;;;;;;29.83;18.57;;;;;;;;;;5036516;28;20631;-74
2022/03/10 06:23:32;;;;;;;31.73;19.50;;;;;;;;;;5035581;28;20637;-76
2022/03/10 06:26:00;;;;;;;27.33;16.57;;;;;;;;;;5032381;28;20664;-75
2022/03/10 06:28:28;;;;;;;28.27;17.43;;;;;;;;;;5035957;28;20227;-76
2022/03/10 06:30:56;;;;;;;31.20;17.30;;;;;;;;;;5034984;28;20698;-76
2022/03/10 06:33:24;;;;;;;26.07;16.07;;;;;;;;;;5035996;28;20663;-76
2022/03/10 06:35:52;;;;;;;27.83;17.27;;;;;;;;;;5033759;28;20281;-75
2022/03/10 06:38:22;;;;;;;30.40;17.27;;;;;;;;;;5032976;28;20751;-76
2022/03/10 06:40:50;;;;;;;30.10;16.50;;;;;;;;;;5033548;28;20286;-77
2022/03/10 06:43:19;;;;;;;32.47;17.93;;;;;;;;;;5034692;28;20344;-75
2022/03/10 06:45:47;;;;;;;27.57;18.80;;;;;;;;;;5034669;28;20725;-75
2022/03/10 06:48:15;;;;;;;33.27;17.60;;;;;;;;;;5035839;28;20235;-77
2022/03/10 06:50:43;;;;;;;30.13;18.20;;;;;;;;;;5034158;28;20492;-74
2022/03/10 06:53:12;;;;;;;28.33;17.23;;;;;;;;;;5034867;28;20291;-73
2022/03/10 06:55:42;;;;;;;39.80;22.20;;;;;;;;;;5035449;28;20354;-77
2022/03/10 06:58:11;;;;;;;28.10;17.67;;;;;;;;;;5035735;28;20238;-77
2022/03/10 07:00:39;;;;;;;27.03;17.03;;;;;;;;;;5035976;28;20246;-76
2022/03/10 07:03:07;;;;;;;23.63;15.53;;;;;;;;;;5033243;28;20286;-77
2022/03/10 07:05:35;;;;;;;29.80;17.60;;;;;;;;;;5035312;28;20225;-76
2022/03/10 07:08:03;;;;;;;24.63;16.17;;;;;;;;;;5035308;28;20258;-77
2022/03/10 07:10:31;;;;;;;26.67;16.60;;;;;;;;;;5035051;28;20698;-76
2022/03/10 07:13:00;;;;;;;24.80;16.23;;;;;;;;;;5035136;28;20694;-76
2022/03/10 07:15:28;;;;;;;25.87;17.07;;;;;;;;;;5034983;28;20303;-74
2022/03/10 07:17:56;;;;;;;30.93;16.77;;;;;;;;;;5030921;28;20219;-75
2022/03/10 07:20:24;;;;;;;23.40;15.93;;;;;;;;;;5032706;28;20642;-73
2022/03/10 07:22:54;;;;;;;23.23;15.00;;;;;;;;;;5035302;28;20230;-76
2022/03/10 07:25:22;;;;;;;23.93;16.30;;;;;;;;;;5035595;28;20287;-74
2022/03/10 07:27:50;;;;;;;28.00;16.07;;;;;;;;;;5035928;28;20743;-72
2022/03/10 07:30:20;;;;;;;29.70;15.97;;;;;;;;;;5034652;28;20287;-73
2022/03/10 07:32:48;;;;;;;24.97;16.30;;;;;;;;;;5035837;28;20234;-73
2022/03/10 07:35:16;;;;;;;28.30;17.07;;;;;;;;;;5027595;28;20254;-73
2022/03/10 07:37:46;;;;;;;27.70;16.93;;;;;;;;;;5034318;28;20725;-73
2022/03/10 07:40:14;;;;;;;27.90;17.60;;;;;;;;;;5035545;28;20270;-73
2022/03/10 07:42:42;;;;;;;28.87;17.23;;;;;;;;;;5034379;28;20219;-73
2022/03/10 07:45:11;;;;;;;24.30;16.33;;;;;;;;;;5039429;28;20706;-74
2022/03/10 07:47:40;;;;;;;29.43;17.03;;;;;;;;;;5036092;28;20238;-74
2022/03/10 07:50:09;;;;;;;27.37;16.50;;;;;;;;;;5033340;28;20268;-74
2022/03/10 07:52:37;;;;;;;21.57;15.63;;;;;;;;;;5037346;28;20642;-74
2022/03/10 07:55:08;;;;;;;25.13;16.40;;;;;;;;;;5038606;28;20623;-73
2022/03/10 07:57:36;;;;;;;26.10;16.77;;;;;;;;;;5038422;28;20200;-72
2022/03/10 08:00:06;;;;;;;27.27;17.97;;;;;;;;;;5036396;28;20204;-74
2022/03/10 08:02:34;;;;;;;25.73;15.67;;;;;;;;;;5035471;28;20227;-75
2022/03/10 08:05:04;;;;;;;25.53;16.90;;;;;;;;;;5037642;28;20207;-74
2022/03/10 08:07:34;;;;;;;26.17;15.53;;;;;;;;;;5036142;28;20199;-74
2022/03/10 08:10:02;;;;;;;18.57;13.17;;;;;;;;;;5037575;28;20290;-75
2022/03/10 08:12:30;;;;;;;20.27;14.60;;;;;;;;;;5035448;28;20227;-76
2022/03/10 08:14:58;;;;;;;26.23;15.70;;;;;;;;;;5036199;28;20287;-74
2022/03/10 08:17:27;;;;;;;17.80;12.73;;;;;;;;;;5038167;28;20203;-76
2022/03/10 08:19:55;;;;;;;19.23;12.57;;;;;;;;;;5036307;28;20210;-74
2022/03/10 08:22:25;;;;;;;22.63;11.90;;;;;;;;;;5032815;28;20271;-74
2022/03/10 08:24:53;;;;;;;14.67;10.47;;;;;;;;;;5030895;28;20645;-72
2022/03/10 08:27:21;;;;;;;14.50;11.23;;;;;;;;;;5038023;28;20231;-68
2022/03/10 08:29:50;;;;;;;18.70;11.03;;;;;;;;;;5035789;28;20250;-74
2022/03/10 08:32:19;;;;;;;16.20;11.10;;;;;;;;;;5036329;28;20195;-73
2022/03/10 08:34:47;;;;;;;20.00;11.77;;;;;;;;;;5037684;28;20290;-73
2022/03/10 08:37:15;;;;;;;17.73;10.93;;;;;;;;;;5038363;28;20653;-75
2022/03/10 08:39:44;;;;;;;17.40;11.00;;;;;;;;;;5037828;28;20239;-74
2022/03/10 08:42:12;;;;;;;17.30;10.67;;;;;;;;;;5034633;28;20257;-74
2022/03/10 08:44:40;;;;;;;19.67;11.33;;;;;;;;;;5035059;28;20239;-74
2022/03/10 08:47:08;;;;;;;13.77;9.77;;;;;;;;;;5037894;28;20262;-73
2022/03/10 08:49:36;;;;;;;13.13;10.40;;;;;;;;;;5037852;28;20238;-73
2022/03/10 08:52:05;;;;;;;14.93;10.03;;;;;;;;;;5030069;28;20684;-75
2022/03/10 08:54:33;;;;;;;15.93;10.07;;;;;;;;;;5025665;28;20299;-75
2022/03/10 08:57:02;;;;;;;17.03;11.43;;;;;;;;;;5037694;28;20251;-73
2022/03/10 08:59:30;;;;;;;14.77;10.67;;;;;;;;;;5037667;28;20279;-74
2022/03/10 09:01:58;;;;;;;15.20;10.10;;;;;;;;;;5037777;28;20287;-73
2022/03/10 09:04:29;;;;;;;13.70;10.50;;;;;;;;;;5037394;28;20226;-73
2022/03/10 09:06:57;;;;;;;13.27;10.03;;;;;;;;;;5036994;28;20391;-74
2022/03/10 09:09:25;;;;;;;19.07;11.13;;;;;;;;;;5037003;28;20200;-76
2022/03/10 09:11:53;;;;;;;15.57;10.97;;;;;;;;;;5034782;28;20196;-75
2022/03/10 09:14:22;;;;;;;12.97;10.00;;;;;;;;;;5037211;28;20251;-75
2022/03/10 09:16:52;;;;;;;14.37;9.40;;;;;;;;;;5031075;28;20285;-75
2022/03/10 09:19:20;;;;;;;15.10;10.53;;;;;;;;;;5040812;28;20242;-76
2022/03/10 09:21:48;;;;;;;15.23;10.10;;;;;;;;;;5034574;28;20614;-75
2022/03/10 09:24:16;;;;;;;14.83;10.40;;;;;;;;;;5037742;28;20311;-74
2022/03/10 09:26:44;;;;;;;14.20;10.53;;;;;;;;;;5036835;28;20306;-77
2022/03/10 09:29:12;;;;;;;14.83;10.33;;;;;;;;;;5037707;28;20283;-72
2022/03/10 09:31:41;;;;;;;14.17;10.20;;;;;;;;;;5035929;28;20645;-76
2022/03/10 09:34:10;;;;;;;16.67;10.03;;;;;;;;;;5036598;28;20238;-74
2022/03/10 09:36:38;;;;;;;17.67;10.97;;;;;;;;;;5033627;28;20606;-76
2022/03/10 09:39:06;;;;;;;24.47;11.20;;;;;;;;;;5037689;28;20227;-76
2022/03/10 09:41:35;;;;;;;13.27;9.83;;;;;;;;;;5028835;28;20257;-75
2022/03/10 09:44:03;;;;;;;17.70;10.77;;;;;;;;;;5033602;28;20255;-77
2022/03/10 09:46:31;;;;;;;19.17;11.23;;;;;;;;;;5031011;28;20315;-76
2022/03/10 09:49:00;;;;;;;15.27;11.30;;;;;;;;;;5031403;28;20246;-75
2022/03/10 09:51:29;;;;;;;15.27;10.60;;;;;;;;;;5031784;28;20210;-75
2022/03/10 09:53:57;;;;;;;14.90;11.07;;;;;;;;;;5032223;28;20227;-75
2022/03/10 09:56:25;;;;;;;16.40;10.37;;;;;;;;;;5033755;28;20754;-75
2022/03/10 09:58:53;;;;;;;12.77;10.43;;;;;;;;;;5033341;28;20224;-75
2022/03/10 10:01:21;;;;;;;12.47;9.57;;;;;;;;;;5034561;28;20630;-73
2022/03/10 10:03:49;;;;;;;14.17;9.47;;;;;;;;;;5033305;28;20234;-75
2022/03/10 10:06:19;;;;;;;16.43;9.13;;;;;;;;;;5032681;28;20215;-74
2022/03/10 10:08:54;;;;;;;12.37;8.77;;;;;;;;;;5036131;28;20632;-75
2022/03/10 10:11:30;;;;;;;14.57;9.80;;;;;;;;;;5036654;28;20286;-75
2022/03/10 10:13:58;;;;;;;14.77;10.67;;;;;;;;;;5033551;28;20310;-76
2022/03/10 10:19:54;;;;;;;10.60;8.00;;;;;;;;;;5035416;28;20203;-75
2022/03/10 10:22:36;;;;;;;12.10;7.83;;;;;;;;;;5032428;28;20223;-74
2022/03/10 10:25:06;;;;;;;12.03;7.77;;;;;;;;;;5033786;28;20293;-72
2022/03/10 10:27:34;;;;;;;11.93;7.57;;;;;;;;;;5035444;28;20227;-75
2022/03/10 10:30:05;;;;;;;44.90;14.97;;;;;;;;;;5035437;28;20202;-71
2022/03/10 10:32:34;;;;;;;30.27;10.17;;;;;;;;;;5032610;28;20199;-70
2022/03/10 10:35:07;;;;;;;13.60;8.53;;;;;;;;;;5032543;28;20192;-73
2022/03/10 10:37:37;;;;;;;10.83;7.17;;;;;;;;;;5031191;28;20611;-73
2022/03/10 10:40:08;;;;;;;8.17;6.93;;;;;;;;;;5032435;28;20211;-72
2022/03/10 10:42:37;;;;;;;7.87;6.40;;;;;;;;;;5036076;28;20230;-74
2022/03/10 10:45:26;;;;;;;9.40;6.87;;;;;;;;;;5035977;28;20262;-69
2022/03/10 10:48:01;;;;;;;9.97;6.60;;;;;;;;;;5033145;28;20231;-72
2022/03/10 10:50:30;;;;;;;7.33;5.80;;;;;;;;;;5032049;28;20203;-72
2022/03/10 10:52:59;;;;;;;9.67;5.73;;;;;;;;;;5030217;28;20257;-71
2022/03/10 10:55:34;;;;;;;7.10;5.37;;;;;;;;;;5035144;28;20302;-70
2022/03/10 10:58:06;;;;;;;10.63;5.60;;;;;;;;;;5035363;28;20286;-71
2022/03/10 11:00:41;;;;;;;7.80;5.10;;;;;;;;;;5035508;28;20231;-73
2022/03/10 11:03:22;;;;;;;5.97;4.90;;;;;;;;;;5035365;28;20678;-67
2022/03/10 11:05:51;;;;;;;9.53;5.60;;;;;;;;;;5036708;28;20263;-67
2022/03/10 11:08:21;;;;;;;10.80;5.43;;;;;;;;;;5032872;28;20235;-67
2022/03/10 11:10:49;;;;;;;6.67;5.47;;;;;;;;;;5025345;28;20231;-66
2022/03/10 11:13:21;;;;;;;13.70;5.50;;;;;;;;;;5031961;28;20227;-66
2022/03/10 11:15:50;;;;;;;8.30;5.67;;;;;;;;;;5032619;28;20220;-67
2022/03/10 11:18:21;;;;;;;5.20;4.70;;;;;;;;;;5038900;28;20200;-67
2022/03/10 11:20:51;;;;;;;6.27;4.90;;;;;;;;;;5035020;28;20214;-67
2022/03/10 11:23:29;;;;;;;9.33;6.03;;;;;;;;;;5036775;28;20261;-67
2022/03/10 11:26:02;;;;;;;5.73;4.23;;;;;;;;;;5034893;28;20306;-67
2022/03/10 11:28:31;;;;;;;5.87;4.30;;;;;;;;;;5039992;28;20227;-66
2022/03/10 11:31:00;;;;;;;6.23;5.40;;;;;;;;;;5032309;28;20204;-67
2022/03/10 11:33:30;;;;;;;6.30;4.77;;;;;;;;;;5036070;28;20203;-66
2022/03/10 11:35:58;;;;;;;5.37;4.53;;;;;;;;;;5035324;28;20251;-67
2022/03/10 11:38:49;;;;;;;6.70;5.37;;;;;;;;;;5035153;28;20206;-66
2022/03/10 11:41:19;;;;;;;7.63;4.47;;;;;;;;;;5032593;28;20214;-66
2022/03/10 11:43:58;;;;;;;6.13;4.30;;;;;;;;;;5040140;28;20282;-64
2022/03/10 11:46:27;;;;;;;8.17;5.23;;;;;;;;;;5034846;28;20251;-72
2022/03/10 11:49:06;;;;;;;6.40;5.03;;;;;;;;;;5031145;28;20335;-71
2022/03/10 11:51:44;;;;;;;9.27;5.60;;;;;;;;;;5033327;28;20263;-72
2022/03/10 11:54:16;;;;;;;8.47;5.53;;;;;;;;;;5039356;28;20210;-73
2022/03/10 11:57:07;;;;;;;7.10;5.67;;;;;;;;;;5035355;28;20305;-72
2022/03/10 11:59:49;;;;;;;11.97;5.53;;;;;;;;;;5035866;28;20223;-72
2022/03/10 12:02:36;;;;;;;7.23;5.40;;;;;;;;;;5038731;28;20204;-72
2022/03/10 12:05:05;;;;;;;9.97;5.60;;;;;;;;;;5036027;28;20253;-72
2022/03/10 12:07:33;;;;;;;5.63;5.07;;;;;;;;;;5035160;28;20231;-72
2022/03/10 12:10:01;;;;;;;7.00;5.43;;;;;;;;;;5036726;28;20267;-72
2022/03/10 12:12:30;;;;;;;7.07;5.13;;;;;;;;;;5036208;28;20231;-72
2022/03/10 12:15:30;;;;;;;9.77;5.20;;;;;;;;;;5018868;28;20671;-72
2022/03/10 12:18:12;;;;;;;7.87;5.50;;;;;;;;;;5015062;28;20208;-72
2022/03/10 12:20:47;;;;;;;6.93;5.43;;;;;;;;;;5018537;28;20206;-72
2022/03/10 12:23:16;;;;;;;6.40;5.23;;;;;;;;;;5018720;28;20235;-72
2022/03/10 12:25:46;;;;;;;6.10;4.83;;;;;;;;;;5014750;28;20260;-72
2022/03/10 12:28:22;;;;;;;5.77;4.73;;;;;;;;;;5008364;28;20197;-72
2022/03/10 12:30:51;;;;;;;6.73;5.20;;;;;;;;;;5014200;28;20208;-72
2022/03/10 12:33:21;;;;;;;6.70;4.67;;;;;;;;;;5019044;28;20208;-72
2022/03/10 12:35:55;;;;;;;8.97;5.00;;;;;;;;;;5018706;28;20259;-72
2022/03/10 12:38:41;;;;;;;8.30;5.23;;;;;;;;;;5019034;28;20199;-72
2022/03/10 12:41:09;;;;;;;6.50;5.47;;;;;;;;;;5011733;28;20212;-73
2022/03/10 12:43:37;;;;;;;7.63;4.83;;;;;;;;;;5012545;28;20259;-72
2022/03/10 12:46:05;;;;;;;9.97;5.10;;;;;;;;;;5014403;28;20343;-72
2022/03/10 12:48:38;;;;;;;12.13;5.43;;;;;;;;;;5015820;28;20664;-72
2022/03/10 12:51:19;;;;;;;7.00;5.17;;;;;;;;;;5018540;28;20232;-72
2022/03/10 12:53:48;;;;;;;7.07;4.80;;;;;;;;;;5014990;28;20212;-72
2022/03/10 12:56:16;;;;;;;6.97;5.40;;;;;;;;;;5017934;28;20347;-72
2022/03/10 12:58:46;;;;;;;7.37;5.40;;;;;;;;;;5015236;28;20232;-72
2022/03/10 13:01:14;;;;;;;6.23;5.33;;;;;;;;;;5018165;28;20208;-72
2022/03/10 13:03:48;;;;;;;8.37;4.97;;;;;;;;;;5015300;28;20208;-72
2022/03/10 13:06:17;;;;;;;5.80;4.80;;;;;;;;;;5014964;28;20228;-72
2022/03/10 13:08:50;;;;;;;4.30;3.73;;;;;;;;;;5015260;28;20291;-72
2022/03/10 13:11:23;;;;;;;9.20;5.33;;;;;;;;;;5016748;28;20236;-72
2022/03/10 13:14:06;;;;;;;6.77;4.73;;;;;;;;;;5011692;28;20267;-72
2022/03/10 13:16:34;;;;;;;7.07;4.57;;;;;;;;;;5016275;28;20258;-73
2022/03/10 13:19:04;;;;;;;7.13;4.67;;;;;;;;;;5014748;28;20660;-72
2022/03/10 13:21:33;;;;;;;5.70;5.03;;;;;;;;;;5017412;28;20228;-72
2022/03/10 13:24:00;;;;;;;4.87;4.10;;;;;;;;;;5017407;28;20232;-72
2022/03/10 13:26:28;;;;;;;4.00;3.63;;;;;;;;;;5017246;28;20260;-72
2022/03/10 13:28:56;;;;;;;4.63;3.70;;;;;;;;;;5017497;28;20291;-72
2022/03/10 13:31:29;;;;;;;4.40;3.43;;;;;;;;;;5014932;28;20196;-72
2022/03/10 13:33:59;;;;;;;2.90;2.37;;;;;;;;;;5017978;28;20268;-72
2022/03/10 13:36:28;;;;;;;5.83;3.37;;;;;;;;;;5017386;28;20270;-72
2022/03/10 13:38:56;;;;;;;3.70;2.77;;;;;;;;;;5014300;28;20279;-72
2022/03/10 13:41:27;;;;;;;3.10;2.80;;;;;;;;;;5017090;28;20210;-72
2022/03/10 13:43:55;;;;;;;5.17;2.90;;;;;;;;;;5012676;28;20279;-72
2022/03/10 13:46:25;;;;;;;4.13;2.80;;;;;;;;;;5014265;28;20654;-72
2022/03/10 13:48:54;;;;;;;4.10;2.43;;;;;;;;;;5017105;28;20202;-72
2022/03/10 13:51:23;;;;;;;2.87;2.60;;;;;;;;;;5017588;28;20200;-72
2022/03/10 13:53:57;;;;;;;2.90;2.40;;;;;;;;;;5017045;28;20235;-72
2022/03/10 13:56:31;;;;;;;3.53;3.23;;;;;;;;;;5013463;28;20247;-73
2022/03/10 13:59:02;;;;;;;2.93;2.47;;;;;;;;;;5016527;28;20250;-72
2022/03/10 14:01:35;;;;;;;4.10;2.57;;;;;;;;;;5013430;28;20204;-72
2022/03/10 14:04:08;;;;;;;2.90;2.70;;;;;;;;;;5015692;28;20247;-72
2022/03/10 14:06:41;;;;;;;4.13;2.70;;;;;;;;;;5017179;28;20264;-72
2022/03/10 14:09:18;;;;;;;5.03;2.90;;;;;;;;;;5011915;28;20653;-72
2022/03/10 14:11:46;;;;;;;4.63;2.57;;;;;;;;;;5016501;28;20203;-72
2022/03/10 14:14:15;;;;;;;4.77;2.90;;;;;;;;;;5032032;28;20688;-72
2022/03/10 14:16:53;;;;;;;5.23;3.17;;;;;;;;;;5034339;28;20224;-72
2022/03/10 14:19:23;;;;;;;2.90;2.70;;;;;;;;;;5027882;28;20203;-72
2022/03/10 14:21:51;;;;;;;6.87;3.40;;;;;;;;;;5034303;28;20286;-72
2022/03/10 14:24:26;;;;;;;4.33;3.33;;;;;;;;;;5027421;28;20203;-72
2022/03/10 14:26:55;;;;;;;3.20;2.90;;;;;;;;;;5033799;28;20306;-72
2022/03/10 14:29:27;;;;;;;7.50;3.00;;;;;;;;;;5031874;28;20287;-72
2022/03/10 14:31:55;;;;;;;3.90;3.03;;;;;;;;;;5026887;28;20214;-72
2022/03/10 14:34:23;;;;;;;4.03;3.00;;;;;;;;;;5030381;28;20195;-72
2022/03/10 14:36:52;;;;;;;2.70;2.50;;;;;;;;;;5031844;28;20708;-72
2022/03/10 14:39:21;;;;;;;6.97;2.70;;;;;;;;;;5035084;28;20263;-72
2022/03/10 14:41:51;;;;;;;3.40;2.60;;;;;;;;;;5035921;28;20319;-72
2022/03/10 14:44:20;;;;;;;4.43;2.43;;;;;;;;;;5032991;28;20235;-72
2022/03/10 14:46:50;;;;;;;3.07;2.67;;;;;;;;;;5033611;28;20231;-72